createdAt,value
2023-04-16T00:00:59.451Z,1102.73
2023-04-16T00:01:59.390Z,1102.73
2023-04-16T00:02:59.502Z,1102.73
2023-04-16T00:03:59.617Z,1102.73
2023-04-16T00:04:59.405Z,1102.73
2023-04-16T00:05:59.335Z,1102.73
2023-04-16T00:06:59.317Z,1102.73
2023-04-16T00:07:59.276Z,1102.73
2023-04-16T00:08:59.258Z,1102.73
2023-04-16T00:09:59.248Z,1102.73
2023-04-16T00:10:59.253Z,1102.73
2023-04-16T00:11:59.275Z,1102.73
2023-04-16T00:12:59.220Z,1102.73
2023-04-16T00:13:59.201Z,1102.73
2023-04-16T00:14:59.203Z,1101.46
2023-04-16T00:15:59.221Z,1102.73
2023-04-16T00:16:59.213Z,1101.46
2023-04-16T00:18:02.168Z,1102.73
2023-04-16T00:19:02.138Z,1101.46
2023-04-16T00:19:59.112Z,1101.46
2023-04-16T00:20:59.128Z,1101.46
2023-04-16T00:21:59.105Z,1102.73
2023-04-16T00:22:59.093Z,1101.46
2023-04-16T00:23:59.060Z,1102.73
2023-04-16T00:24:59.096Z,1101.46
2023-04-16T00:25:59.033Z,1101.46
2023-04-16T00:26:59.034Z,1101.46
2023-04-16T00:27:59.005Z,1101.46
2023-04-16T00:28:58.998Z,1101.46
2023-04-16T00:29:58.989Z,1101.46
2023-04-16T00:30:58.977Z,1101.46
2023-04-16T00:31:58.946Z,1101.46
2023-04-16T00:32:59.001Z,1101.46
2023-04-16T00:33:58.952Z,1101.46
2023-04-16T00:34:58.908Z,1101.46
2023-04-16T00:35:58.906Z,1101.46
2023-04-16T00:36:58.906Z,1101.46
2023-04-16T00:38:01.888Z,1101.46
2023-04-16T00:39:01.909Z,1101.46
2023-04-16T00:39:58.872Z,1101.46
2023-04-16T00:40:58.837Z,1101.46
2023-04-16T00:41:58.839Z,1101.46
2023-04-16T00:42:58.800Z,1101.46
2023-04-16T00:43:58.856Z,1101.46
2023-04-16T00:44:58.775Z,1101.46
2023-04-16T00:45:58.826Z,1102.73
2023-04-16T00:46:58.772Z,1101.46
2023-04-16T00:48:00.446Z,1101.46
2023-04-16T00:48:58.793Z,1101.46
2023-04-16T00:49:58.722Z,1101.46
2023-04-16T00:50:58.695Z,1101.46
2023-04-16T00:51:58.709Z,1101.46
2023-04-16T00:52:58.711Z,1101.46
2023-04-16T00:53:58.649Z,1101.46
2023-04-16T00:54:58.666Z,1102.73
2023-04-16T00:55:58.627Z,1101.46
2023-04-16T00:56:58.628Z,1101.46
2023-04-16T00:58:01.593Z,1101.46
2023-04-16T00:59:01.678Z,1101.46
2023-04-16T00:59:58.576Z,1101.46
2023-04-16T01:00:58.557Z,1101.46
2023-04-16T01:01:58.696Z,1101.46
2023-04-16T01:02:58.636Z,1102.73
2023-04-16T01:03:58.540Z,1102.73
2023-04-16T01:04:58.518Z,1101.46
2023-04-16T01:05:58.510Z,1101.46
2023-04-16T01:06:58.473Z,1101.46
2023-04-16T01:07:58.458Z,1101.46
2023-04-16T01:08:58.436Z,1101.46
2023-04-16T01:09:58.446Z,1101.46
2023-04-16T01:10:58.441Z,1102.73
2023-04-16T01:11:58.404Z,1101.46
2023-04-16T01:12:58.394Z,1101.46
2023-04-16T01:13:58.376Z,1101.46
2023-04-16T01:14:58.358Z,1101.46
2023-04-16T01:15:58.480Z,1101.46
2023-04-16T01:16:58.324Z,1101.46
2023-04-16T01:18:01.387Z,1101.46
2023-04-16T01:19:01.314Z,1101.46
2023-04-16T01:19:58.310Z,1101.46
2023-04-16T01:20:58.283Z,1101.46
2023-04-16T01:21:58.301Z,1101.46
2023-04-16T01:22:58.258Z,1101.46
2023-04-16T01:23:58.255Z,1102.73
2023-04-16T01:24:58.237Z,1101.46
2023-04-16T01:25:58.226Z,1101.46
2023-04-16T01:26:58.231Z,1101.46
2023-04-16T01:27:58.203Z,1101.46
2023-04-16T01:28:58.176Z,1101.46
2023-04-16T01:29:58.160Z,1101.46
2023-04-16T01:30:58.188Z,1101.46
2023-04-16T01:31:58.158Z,1101.46
2023-04-16T01:32:58.196Z,1101.46
2023-04-16T01:33:58.111Z,1101.46
2023-04-16T01:34:58.098Z,1101.46
2023-04-16T01:35:58.087Z,1101.46
2023-04-16T01:36:58.129Z,1101.46
2023-04-16T01:38:01.048Z,1101.46
2023-04-16T01:39:01.061Z,1101.46
2023-04-16T01:39:58.040Z,1101.46
2023-04-16T01:40:58.024Z,1101.46
2023-04-16T01:41:58.005Z,1101.46
2023-04-16T01:42:58.007Z,1101.46
2023-04-16T01:43:57.985Z,1101.46
2023-04-16T01:44:57.958Z,1101.46
2023-04-16T01:45:57.940Z,1101.46
2023-04-16T01:46:58.088Z,1101.46
2023-04-16T01:47:57.993Z,1101.46
2023-04-16T01:48:57.904Z,1101.46
2023-04-16T01:49:57.896Z,1101.46
2023-04-16T01:50:57.890Z,1101.46
2023-04-16T01:51:57.871Z,1101.46
2023-04-16T01:52:57.885Z,1101.46
2023-04-16T01:53:57.845Z,1101.46
2023-04-16T01:54:57.822Z,1101.46
2023-04-16T01:55:57.827Z,1101.46
2023-04-16T01:56:57.791Z,1101.46
2023-04-16T01:58:00.792Z,1101.46
2023-04-16T01:59:00.777Z,1101.46
2023-04-16T01:59:57.781Z,1101.46
2023-04-16T02:00:57.758Z,1101.46
2023-04-16T02:01:57.776Z,1101.46
2023-04-16T02:02:57.866Z,1101.46
2023-04-16T02:03:57.820Z,1101.46
2023-04-16T02:04:57.699Z,1101.46
2023-04-16T02:05:57.668Z,1101.46
2023-04-16T02:06:57.653Z,1101.46
2023-04-16T02:07:57.687Z,1101.46
2023-04-16T02:08:57.659Z,1102.73
2023-04-16T02:09:57.627Z,1102.73
2023-04-16T02:10:57.597Z,1101.46
2023-04-16T02:11:57.602Z,1101.46
2023-04-16T02:12:57.580Z,1101.46
2023-04-16T02:13:57.571Z,1101.46
2023-04-16T02:14:57.572Z,1101.46
2023-04-16T02:15:57.576Z,1101.46
2023-04-16T02:16:57.564Z,1101.46
2023-04-16T02:18:00.564Z,1101.46
2023-04-16T02:19:00.517Z,1101.46
2023-04-16T02:19:57.568Z,1101.46
2023-04-16T02:20:57.531Z,1101.46
2023-04-16T02:21:57.456Z,1101.46
2023-04-16T02:22:57.437Z,1101.46
2023-04-16T02:23:57.424Z,1101.46
2023-04-16T02:24:57.409Z,1101.46
2023-04-16T02:25:57.394Z,1101.46
2023-04-16T02:26:57.409Z,1101.46
2023-04-16T02:27:57.361Z,1101.46
2023-04-16T02:28:57.361Z,1101.46
2023-04-16T02:29:57.352Z,1101.46
2023-04-16T02:30:57.357Z,1101.46
2023-04-16T02:31:57.342Z,1101.46
2023-04-16T02:32:57.350Z,1101.46
2023-04-16T02:33:57.282Z,1101.46
2023-04-16T02:34:57.314Z,1101.46
2023-04-16T02:35:57.278Z,1101.46
2023-04-16T02:36:57.245Z,1101.46
2023-04-16T02:38:00.216Z,1101.46
2023-04-16T02:39:00.207Z,1101.46
2023-04-16T02:39:57.202Z,1101.46
2023-04-16T02:40:57.209Z,1101.46
2023-04-16T02:41:57.198Z,1101.46
2023-04-16T02:42:57.161Z,1101.46
2023-04-16T02:43:57.149Z,1101.46
2023-04-16T02:44:57.135Z,1101.46
2023-04-16T02:45:57.140Z,1101.46
2023-04-16T02:46:57.158Z,1101.46
2023-04-16T02:47:57.164Z,1101.46
2023-04-16T02:48:57.084Z,1101.46
2023-04-16T02:49:57.083Z,1101.46
2023-04-16T02:50:57.068Z,1101.46
2023-04-16T02:51:57.041Z,1101.46
2023-04-16T02:52:57.068Z,1101.46
2023-04-16T02:53:57.008Z,1101.46
2023-04-16T02:54:56.998Z,1101.46
2023-04-16T02:55:57.048Z,1101.46
2023-04-16T02:56:56.969Z,1101.46
2023-04-16T02:57:59.978Z,1101.46
2023-04-16T02:58:59.942Z,1101.46
2023-04-16T02:59:56.934Z,1101.46
2023-04-16T03:00:56.980Z,1101.46
2023-04-16T03:01:57.007Z,1101.46
2023-04-16T03:02:56.970Z,1101.46
2023-04-16T03:03:56.915Z,1101.46
2023-04-16T03:04:56.894Z,1101.46
2023-04-16T03:05:56.844Z,1101.46
2023-04-16T03:06:56.851Z,1101.46
2023-04-16T03:07:56.894Z,1101.46
2023-04-16T03:08:56.839Z,1101.46
2023-04-16T03:09:56.803Z,1101.46
2023-04-16T03:10:56.786Z,1101.46
2023-04-16T03:11:56.775Z,1101.46
2023-04-16T03:12:56.779Z,1101.46
2023-04-16T03:13:56.756Z,1101.46
2023-04-16T03:14:56.725Z,1101.46
2023-04-16T03:15:56.747Z,1101.46
2023-04-16T03:16:56.702Z,1101.46
2023-04-16T03:17:59.738Z,1101.46
2023-04-16T03:18:59.690Z,1101.46
2023-04-16T03:19:56.658Z,1101.46
2023-04-16T03:20:56.641Z,1101.46
2023-04-16T03:21:56.634Z,1101.46
2023-04-16T03:22:56.615Z,1101.46
2023-04-16T03:23:56.631Z,1101.46
2023-04-16T03:24:56.612Z,1101.46
2023-04-16T03:25:56.574Z,1101.46
2023-04-16T03:26:56.564Z,1101.46
2023-04-16T03:27:56.586Z,1101.46
2023-04-16T03:28:56.540Z,1101.46
2023-04-16T03:29:56.539Z,1101.46
2023-04-16T03:30:56.541Z,1101.46
2023-04-16T03:31:56.539Z,1101.46
2023-04-16T03:32:56.507Z,1101.46
2023-04-16T03:33:56.476Z,1101.46
2023-04-16T03:34:56.473Z,1101.46
2023-04-16T03:35:56.433Z,1101.46
2023-04-16T03:36:56.423Z,1101.46
2023-04-16T03:37:59.432Z,1101.46
2023-04-16T03:38:59.439Z,1101.46
2023-04-16T03:39:56.404Z,1101.46
2023-04-16T03:40:56.377Z,1101.46
2023-04-16T03:41:56.362Z,1101.46
2023-04-16T03:42:56.345Z,1101.46
2023-04-16T03:43:56.371Z,1101.46
2023-04-16T03:44:56.353Z,1101.46
2023-04-16T03:45:56.296Z,1101.46
2023-04-16T03:46:56.358Z,1101.46
2023-04-16T03:47:56.339Z,1101.46
2023-04-16T03:48:56.282Z,1101.46
2023-04-16T03:49:56.259Z,1101.46
2023-04-16T03:50:56.246Z,1101.46
2023-04-16T03:51:56.233Z,1101.46
2023-04-16T03:52:56.219Z,1101.46
2023-04-16T03:53:56.234Z,1101.46
2023-04-16T03:54:56.197Z,1101.46
2023-04-16T03:55:56.176Z,1101.46
2023-04-16T03:56:56.163Z,1101.46
2023-04-16T03:57:59.136Z,1101.46
2023-04-16T03:58:59.159Z,1101.46
2023-04-16T03:59:56.121Z,1101.46
2023-04-16T04:00:56.132Z,1101.46
2023-04-16T04:01:56.118Z,1101.46
2023-04-16T04:02:56.236Z,1101.46
2023-04-16T04:03:56.178Z,1101.46
2023-04-16T04:04:56.057Z,1101.46
2023-04-16T04:05:56.055Z,1101.46
2023-04-16T04:06:56.061Z,1101.46
2023-04-16T04:07:56.033Z,1101.46
2023-04-16T04:08:56.036Z,1101.46
2023-04-16T04:09:55.986Z,1101.46
2023-04-16T04:10:55.964Z,1101.46
2023-04-16T04:11:55.997Z,1101.46
2023-04-16T04:12:55.935Z,1101.46
2023-04-16T04:13:55.927Z,1101.46
2023-04-16T04:14:55.919Z,1101.46
2023-04-16T04:15:55.916Z,1101.46
2023-04-16T04:16:55.904Z,1101.46
2023-04-16T04:17:58.918Z,1101.46
2023-04-16T04:18:58.880Z,1101.46
2023-04-16T04:20:55.834Z,1101.46
2023-04-16T04:21:55.820Z,1101.46
2023-04-16T04:22:55.873Z,1101.46
2023-04-16T04:23:56.198Z,1101.46
2023-04-16T04:24:55.793Z,1101.46
2023-04-16T04:25:55.834Z,1101.46
2023-04-16T04:26:55.767Z,1101.46
2023-04-16T04:27:55.745Z,1101.46
2023-04-16T04:28:55.779Z,1101.46
2023-04-16T04:29:55.706Z,1101.46
2023-04-16T04:30:55.695Z,1101.46
2023-04-16T04:31:55.673Z,1101.46
2023-04-16T04:32:55.701Z,1101.46
2023-04-16T04:33:55.646Z,1101.46
2023-04-16T04:34:55.662Z,1101.46
2023-04-16T04:35:55.644Z,1101.46
2023-04-16T04:36:55.626Z,1101.46
2023-04-16T04:37:58.600Z,1101.46
2023-04-16T04:38:58.618Z,1101.46
2023-04-16T04:39:55.573Z,1101.46
2023-04-16T04:40:55.559Z,1101.46
2023-04-16T04:41:55.547Z,1101.46
2023-04-16T04:42:55.541Z,1101.46
2023-04-16T04:43:55.507Z,1101.46
2023-04-16T04:44:55.535Z,1101.46
2023-04-16T04:45:55.538Z,1101.46
2023-04-16T04:46:55.479Z,1101.46
2023-04-16T04:47:55.497Z,1101.46
2023-04-16T04:48:55.461Z,1101.46
2023-04-16T04:49:55.453Z,1101.46
2023-04-16T04:50:55.483Z,1101.46
2023-04-16T04:51:55.428Z,1101.46
2023-04-16T04:52:55.420Z,1101.46
2023-04-16T04:53:55.388Z,1101.46
2023-04-16T04:54:55.377Z,1101.46
2023-04-16T04:55:57.577Z,1101.46
2023-04-16T04:56:56.412Z,1101.46
2023-04-16T04:57:58.333Z,1101.46
2023-04-16T04:58:58.323Z,1101.46
2023-04-16T04:59:55.307Z,1101.46
2023-04-16T05:00:55.346Z,1102.73
2023-04-16T05:01:55.331Z,1101.46
2023-04-16T05:02:55.368Z,1102.73
2023-04-16T05:03:55.280Z,1102.73
2023-04-16T05:04:55.318Z,1101.46
2023-04-16T05:05:55.245Z,1102.73
2023-04-16T05:06:55.208Z,1102.73
2023-04-16T05:07:55.210Z,1102.73
2023-04-16T05:08:55.167Z,1101.46
2023-04-16T05:09:55.160Z,1102.73
2023-04-16T05:10:55.158Z,1101.46
2023-04-16T05:11:55.143Z,1101.46
2023-04-16T05:12:55.146Z,1101.46
2023-04-16T05:13:55.139Z,1101.46
2023-04-16T05:14:55.120Z,1101.46
2023-04-16T05:15:55.092Z,1101.46
2023-04-16T05:16:55.132Z,1101.46
2023-04-16T05:17:58.182Z,1101.46
2023-04-16T05:18:58.060Z,1101.46
2023-04-16T05:19:55.041Z,1101.46
2023-04-16T05:20:55.015Z,1101.46
2023-04-16T05:21:55.060Z,1101.46
2023-04-16T05:22:54.988Z,1101.46
2023-04-16T05:23:54.997Z,1102.73
2023-04-16T05:24:54.965Z,1101.46
2023-04-16T05:25:54.956Z,1101.46
2023-04-16T05:26:54.927Z,1101.46
2023-04-16T05:27:54.983Z,1101.46
2023-04-16T05:28:54.923Z,1102.73
2023-04-16T05:29:54.901Z,1102.73
2023-04-16T05:30:54.937Z,1101.46
2023-04-16T05:31:54.873Z,1101.46
2023-04-16T05:32:54.894Z,1101.46
2023-04-16T05:33:54.875Z,1102.73
2023-04-16T05:34:54.827Z,1102.73
2023-04-16T05:35:54.856Z,1102.73
2023-04-16T05:36:54.790Z,1102.73
2023-04-16T05:37:57.826Z,1102.73
2023-04-16T05:38:57.817Z,1101.46
2023-04-16T05:39:54.757Z,1101.46
2023-04-16T05:40:54.749Z,1102.73
2023-04-16T05:41:54.747Z,1102.73
2023-04-16T05:42:54.720Z,1102.73
2023-04-16T05:43:54.728Z,1102.73
2023-04-16T05:44:54.686Z,1102.73
2023-04-16T05:45:54.713Z,1102.73
2023-04-16T05:46:54.704Z,1102.73
2023-04-16T05:47:54.692Z,1102.73
2023-04-16T05:48:54.709Z,1102.73
2023-04-16T05:49:54.646Z,1102.73
2023-04-16T05:50:54.618Z,1102.73
2023-04-16T05:51:54.606Z,1102.73
2023-04-16T05:52:54.585Z,1102.73
2023-04-16T05:53:54.571Z,1102.73
2023-04-16T05:54:54.613Z,1102.73
2023-04-16T05:55:54.576Z,1102.73
2023-04-16T05:56:54.525Z,1102.73
2023-04-16T05:57:57.528Z,1102.73
2023-04-16T05:58:57.519Z,1102.73
2023-04-16T05:59:54.495Z,1102.73
2023-04-16T06:00:54.524Z,1102.73
2023-04-16T06:01:54.530Z,1102.73
2023-04-16T06:02:54.561Z,1102.73
2023-04-16T06:03:54.503Z,1102.73
2023-04-16T06:04:54.426Z,1102.73
2023-04-16T06:05:54.500Z,1102.73
2023-04-16T06:06:54.401Z,1102.73
2023-04-16T06:07:54.393Z,1102.73
2023-04-16T06:08:54.371Z,1102.73
2023-04-16T06:09:54.361Z,1102.73
2023-04-16T06:10:54.377Z,1102.73
2023-04-16T06:11:54.331Z,1102.73
2023-04-16T06:12:54.308Z,1102.73
2023-04-16T06:13:54.299Z,1102.73
2023-04-16T06:14:54.273Z,1102.73
2023-04-16T06:15:54.363Z,1102.73
2023-04-16T06:16:54.270Z,1102.73
2023-04-16T06:17:58.448Z,1102.73
2023-04-16T06:18:57.246Z,1102.73
2023-04-16T06:19:54.207Z,1102.73
2023-04-16T06:20:54.209Z,1102.73
2023-04-16T06:21:54.208Z,1102.73
2023-04-16T06:22:54.160Z,1102.73
2023-04-16T06:23:54.217Z,1102.73
2023-04-16T06:24:54.134Z,1102.73
2023-04-16T06:25:54.139Z,1102.73
2023-04-16T06:26:54.104Z,1102.73
2023-04-16T06:27:54.100Z,1102.73
2023-04-16T06:28:54.081Z,1102.73
2023-04-16T06:29:54.119Z,1102.73
2023-04-16T06:30:54.049Z,1102.73
2023-04-16T06:31:54.073Z,1102.73
2023-04-16T06:32:54.102Z,1102.73
2023-04-16T06:33:54.016Z,1102.73
2023-04-16T06:34:53.996Z,1102.73
2023-04-16T06:35:54.030Z,1102.73
2023-04-16T06:36:53.967Z,1102.73
2023-04-16T06:37:56.973Z,1102.73
2023-04-16T06:38:56.951Z,1102.73
2023-04-16T06:39:53.928Z,1102.73
2023-04-16T06:40:53.956Z,1102.73
2023-04-16T06:41:53.903Z,1102.73
2023-04-16T06:42:53.892Z,1102.73
2023-04-16T06:43:53.902Z,1102.73
2023-04-16T06:44:53.898Z,1102.73
2023-04-16T06:45:53.865Z,1102.73
2023-04-16T06:46:53.871Z,1102.73
2023-04-16T06:47:53.872Z,1102.73
2023-04-16T06:48:53.808Z,1102.73
2023-04-16T06:49:53.838Z,1102.73
2023-04-16T06:50:53.789Z,1102.73
2023-04-16T06:51:53.771Z,1102.73
2023-04-16T06:52:53.768Z,1102.73
2023-04-16T06:53:53.740Z,1102.73
2023-04-16T06:54:53.727Z,1102.73
2023-04-16T06:55:53.748Z,1102.73
2023-04-16T06:56:53.702Z,1102.73
2023-04-16T06:57:56.702Z,1102.73
2023-04-16T06:58:56.669Z,1102.73
2023-04-16T06:59:53.661Z,1102.73
2023-04-16T07:00:53.717Z,1102.73
2023-04-16T07:01:53.758Z,1102.73
2023-04-16T07:02:54.677Z,1102.73
2023-04-16T07:03:53.910Z,1102.73
2023-04-16T07:04:53.602Z,1102.73
2023-04-16T07:05:53.579Z,1102.73
2023-04-16T07:06:53.597Z,1102.73
2023-04-16T07:07:53.549Z,1102.73
2023-04-16T07:08:53.537Z,1102.73
2023-04-16T07:09:53.525Z,1102.73
2023-04-16T07:10:53.512Z,1102.73
2023-04-16T07:11:53.561Z,1102.73
2023-04-16T07:12:53.494Z,1102.73
2023-04-16T07:13:53.475Z,1102.73
2023-04-16T07:14:53.464Z,1102.73
2023-04-16T07:15:53.452Z,1102.73
2023-04-16T07:16:53.481Z,1102.73
2023-04-16T07:17:56.443Z,1102.73
2023-04-16T07:18:56.418Z,1102.73
2023-04-16T07:19:53.394Z,1102.73
2023-04-16T07:20:53.377Z,1102.73
2023-04-16T07:21:53.362Z,1102.73
2023-04-16T07:22:53.367Z,1102.73
2023-04-16T07:23:53.361Z,1102.73
2023-04-16T07:24:53.324Z,1102.73
2023-04-16T07:25:53.324Z,1102.73
2023-04-16T07:26:53.310Z,1102.73
2023-04-16T07:27:53.315Z,1102.73
2023-04-16T07:28:53.271Z,1102.73
2023-04-16T07:29:53.264Z,1102.73
2023-04-16T07:30:53.256Z,1102.73
2023-04-16T07:31:53.290Z,1102.73
2023-04-16T07:32:53.345Z,1102.73
2023-04-16T07:33:53.223Z,1102.73
2023-04-16T07:34:53.245Z,1102.73
2023-04-16T07:35:53.176Z,1102.73
2023-04-16T07:36:53.179Z,1102.73
2023-04-16T07:37:56.194Z,1102.73
2023-04-16T07:38:56.144Z,1102.73
2023-04-16T07:39:53.193Z,1102.73
2023-04-16T07:40:53.117Z,1102.73
2023-04-16T07:41:53.128Z,1102.73
2023-04-16T07:42:53.085Z,1102.73
2023-04-16T07:43:53.110Z,1102.73
2023-04-16T07:44:53.059Z,1102.73
2023-04-16T07:45:53.049Z,1102.73
2023-04-16T07:46:53.094Z,1102.73
2023-04-16T07:47:53.087Z,1102.73
2023-04-16T07:48:53.001Z,1102.73
2023-04-16T07:49:52.995Z,1102.73
2023-04-16T07:50:52.977Z,1102.73
2023-04-16T07:51:52.961Z,1102.73
2023-04-16T07:52:52.956Z,1102.73
2023-04-16T07:53:52.978Z,1102.73
2023-04-16T07:54:52.922Z,1102.73
2023-04-16T07:55:52.924Z,1102.73
2023-04-16T07:56:52.891Z,1102.73
2023-04-16T07:57:55.940Z,1102.73
2023-04-16T07:58:55.873Z,1102.73
2023-04-16T07:59:52.852Z,1102.73
2023-04-16T08:00:52.839Z,1102.73
2023-04-16T08:01:52.851Z,1102.73
2023-04-16T08:02:53.018Z,1102.73
2023-04-16T08:03:52.953Z,1102.73
2023-04-16T08:04:52.915Z,1102.73
2023-04-16T08:05:52.860Z,1102.73
2023-04-16T08:06:52.796Z,1102.73
2023-04-16T08:07:52.742Z,1102.73
2023-04-16T08:08:52.745Z,1102.73
2023-04-16T08:09:52.772Z,1102.73
2023-04-16T08:10:52.699Z,1102.73
2023-04-16T08:11:52.717Z,1102.73
2023-04-16T08:12:52.660Z,1102.73
2023-04-16T08:13:52.664Z,1102.73
2023-04-16T08:14:52.657Z,1102.73
2023-04-16T08:15:52.722Z,1102.73
2023-04-16T08:16:52.630Z,1102.73
2023-04-16T08:17:55.668Z,1102.73
2023-04-16T08:18:55.611Z,1102.73
2023-04-16T08:19:52.609Z,1102.73
2023-04-16T08:20:52.565Z,1102.73
2023-04-16T08:21:52.558Z,1102.73
2023-04-16T08:22:52.538Z,1102.73
2023-04-16T08:23:52.524Z,1102.73
2023-04-16T08:24:52.542Z,1102.73
2023-04-16T08:25:53.119Z,1102.73
2023-04-16T08:26:52.567Z,1102.73
2023-04-16T08:27:52.469Z,1102.73
2023-04-16T08:28:52.451Z,1102.73
2023-04-16T08:29:52.439Z,1102.73
2023-04-16T08:30:52.466Z,1102.73
2023-04-16T08:31:52.431Z,1102.73
2023-04-16T08:32:52.476Z,1102.73
2023-04-16T08:33:52.397Z,1102.73
2023-04-16T08:34:52.392Z,1102.73
2023-04-16T08:35:52.379Z,1102.73
2023-04-16T08:36:52.349Z,1102.73
2023-04-16T08:37:55.352Z,1102.73
2023-04-16T08:38:55.321Z,1102.73
2023-04-16T08:39:52.348Z,1102.73
2023-04-16T08:40:52.271Z,1102.73
2023-04-16T08:41:52.278Z,1102.73
2023-04-16T08:42:52.301Z,1102.73
2023-04-16T08:43:52.256Z,1102.73
2023-04-16T08:44:52.234Z,1102.73
2023-04-16T08:45:52.224Z,1102.73
2023-04-16T08:46:52.261Z,1102.73
2023-04-16T08:47:52.214Z,1102.73
2023-04-16T08:48:52.230Z,1102.73
2023-04-16T08:49:52.170Z,1102.73
2023-04-16T08:50:52.226Z,1102.73
2023-04-16T08:51:52.176Z,1102.73
2023-04-16T08:52:52.130Z,1102.73
2023-04-16T08:53:52.120Z,1102.73
2023-04-16T08:54:56.387Z,1102.73
2023-04-16T08:55:53.097Z,1102.73
2023-04-16T08:56:52.068Z,1102.73
2023-04-16T08:57:55.072Z,1102.73
2023-04-16T08:58:55.133Z,1102.73
2023-04-16T08:59:52.042Z,1102.73
2023-04-16T09:00:52.027Z,1102.73
2023-04-16T09:01:52.024Z,1102.73
2023-04-16T09:02:52.159Z,1102.73
2023-04-16T09:03:52.181Z,1102.73
2023-04-16T09:04:52.042Z,1102.73
2023-04-16T09:05:51.962Z,1102.73
2023-04-16T09:06:51.933Z,1102.73
2023-04-16T09:07:51.926Z,1102.73
2023-04-16T09:08:51.896Z,1102.73
2023-04-16T09:09:51.925Z,1102.73
2023-04-16T09:10:51.875Z,1102.73
2023-04-16T09:11:51.867Z,1102.73
2023-04-16T09:12:51.842Z,1102.73
2023-04-16T09:13:51.834Z,1102.73
2023-04-16T09:14:51.811Z,1102.73
2023-04-16T09:15:51.871Z,1102.73
2023-04-16T09:16:51.800Z,1102.73
2023-04-16T09:17:54.801Z,1102.73
2023-04-16T09:18:54.775Z,1102.73
2023-04-16T09:19:51.775Z,1102.73
2023-04-16T09:20:51.784Z,1102.73
2023-04-16T09:21:51.757Z,1102.73
2023-04-16T09:22:51.721Z,1102.73
2023-04-16T09:23:51.699Z,1101.46
2023-04-16T09:24:51.677Z,1102.73
2023-04-16T09:25:51.684Z,1101.46
2023-04-16T09:26:51.685Z,1102.73
2023-04-16T09:27:51.653Z,1102.73
2023-04-16T09:28:51.670Z,1102.73
2023-04-16T09:29:51.615Z,1102.73
2023-04-16T09:30:51.634Z,1102.73
2023-04-16T09:31:51.631Z,1102.73
2023-04-16T09:32:51.666Z,1101.46
2023-04-16T09:33:51.589Z,1101.22
2023-04-16T09:34:51.552Z,1101.46
2023-04-16T09:35:51.559Z,1100.39
2023-04-16T09:36:51.548Z,1088.38
2023-04-16T09:37:54.519Z,1095.02
2023-04-16T09:38:56.943Z,1101.46
2023-04-16T09:39:51.487Z,1101.46
2023-04-16T09:40:51.470Z,1101.46
2023-04-16T09:41:51.458Z,1100.51
2023-04-16T09:42:51.467Z,1092.17
2023-04-16T09:43:51.424Z,1101.46
2023-04-16T09:44:51.461Z,1101.46
2023-04-16T09:45:51.446Z,1101.46
2023-04-16T09:46:51.412Z,1101.46
2023-04-16T09:47:51.535Z,1099.11
2023-04-16T09:48:51.436Z,1101.46
2023-04-16T09:49:51.364Z,1094.47
2023-04-16T09:50:51.334Z,1082.56
2023-04-16T09:51:51.388Z,1088.26
2023-04-16T09:52:51.320Z,1080.51
2023-04-16T09:53:51.293Z,1092.30
2023-04-16T09:54:51.292Z,1095.49
2023-04-16T09:55:51.267Z,1094.09
2023-04-16T09:56:51.280Z,1098.09
2023-04-16T09:57:54.296Z,1096.59
2023-04-16T09:58:54.234Z,1084.72
2023-04-16T09:59:51.200Z,1083.30
2023-04-16T10:00:51.211Z,1084.05
2023-04-16T10:01:51.366Z,1092.24
2023-04-16T10:02:51.259Z,1099.09
2023-04-16T10:03:51.383Z,1088.58
2023-04-16T10:04:51.295Z,1083.10
2023-04-16T10:05:51.128Z,1078.65
2023-04-16T10:06:51.167Z,1057.65
2023-04-16T10:07:51.124Z,1073.88
2023-04-16T10:08:51.115Z,1065.74
2023-04-16T10:09:51.066Z,1097.59
2023-04-16T10:10:51.088Z,1091.89
2023-04-16T10:11:51.065Z,1072.32
2023-04-16T10:12:51.035Z,1082.84
2023-04-16T10:13:51.071Z,1070.93
2023-04-16T10:14:51.009Z,1074.84
2023-04-16T10:15:50.988Z,1086.02
2023-04-16T10:16:51.065Z,1099.19
2023-04-16T10:17:54.041Z,1100.38
2023-04-16T10:18:53.977Z,1101.42
2023-04-16T10:19:50.942Z,1094.99
2023-04-16T10:20:50.943Z,1086.13
2023-04-16T10:21:50.912Z,1096.36
2023-04-16T10:22:50.897Z,1101.46
2023-04-16T10:23:50.951Z,1098.29
2023-04-16T10:24:50.869Z,1093.88
2023-04-16T10:25:50.879Z,1100.55
2023-04-16T10:26:50.906Z,1093.48
2023-04-16T10:27:50.828Z,1095.90
2023-04-16T10:28:50.812Z,1085.58
2023-04-16T10:29:50.851Z,1084.45
2023-04-16T10:30:50.870Z,1087.05
2023-04-16T10:31:50.768Z,1096.43
2023-04-16T10:32:50.845Z,1101.46
2023-04-16T10:33:50.780Z,1087.83
2023-04-16T10:34:50.777Z,1081.70
2023-04-16T10:36:01.334Z,1097.44
2023-04-16T10:36:51.728Z,1096.54
2023-04-16T10:37:53.683Z,1100.22
2023-04-16T10:38:53.688Z,1089.63
2023-04-16T10:39:50.682Z,1087.91
2023-04-16T10:40:50.645Z,1094.91
2023-04-16T10:41:50.665Z,1081.11
2023-04-16T10:42:50.621Z,1083.57
2023-04-16T10:43:50.609Z,1099.73
2023-04-16T10:44:50.592Z,1081.81
2023-04-16T10:45:50.632Z,1071.13
2023-04-16T10:46:50.600Z,1067.83
2023-04-16T10:47:50.604Z,1053.22
2023-04-16T10:48:50.970Z,1045.90
2023-04-16T10:49:50.573Z,1027.65
2023-04-16T10:50:52.075Z,1055.90
2023-04-16T10:51:50.507Z,1054.72
2023-04-16T10:52:50.487Z,1050.76
2023-04-16T10:53:50.472Z,1073.45
2023-04-16T10:54:50.471Z,1083.80
2023-04-16T10:55:50.476Z,1088.51
2023-04-16T10:56:50.573Z,1080.28
2023-04-16T10:57:53.447Z,1080.95
2023-04-16T10:58:53.419Z,1077.28
2023-04-16T10:59:50.394Z,1052.94
2023-04-16T11:00:50.379Z,1021.67
2023-04-16T11:01:50.545Z,1018.74
2023-04-16T11:02:50.469Z,1028.08
2023-04-16T11:03:50.478Z,1039.80
2023-04-16T11:04:50.429Z,1043.03
2023-04-16T11:05:50.324Z,1068.09
2023-04-16T11:06:50.301Z,1078.26
2023-04-16T11:07:50.322Z,1079.20
2023-04-16T11:08:55.046Z,1072.43
2023-04-16T11:09:51.285Z,1077.27
2023-04-16T11:10:50.262Z,1066.27
2023-04-16T11:11:50.230Z,1055.35
2023-04-16T11:12:50.224Z,1055.46
2023-04-16T11:13:50.230Z,1079.84
2023-04-16T11:14:50.205Z,1052.29
2023-04-16T11:15:50.183Z,1053.21
2023-04-16T11:16:50.177Z,1067.35
2023-04-16T11:17:53.199Z,1051.16
2023-04-16T11:18:54.538Z,1055.26
2023-04-16T11:19:50.124Z,1047.12
2023-04-16T11:20:50.113Z,1063.26
2023-04-16T11:21:50.089Z,1060.20
2023-04-16T11:22:50.133Z,1023.87
2023-04-16T11:23:50.067Z,1003.02
2023-04-16T11:24:50.058Z,1002.49
2023-04-16T11:25:50.064Z,982.25
2023-04-16T11:26:50.058Z,979.85
2023-04-16T11:27:50.054Z,1034.35
2023-04-16T11:28:50.032Z,1054.25
2023-04-16T11:29:49.994Z,1026.55
2023-04-16T11:30:49.983Z,1027.25
2023-04-16T11:31:50.023Z,1012.69
2023-04-16T11:32:49.971Z,1009.11
2023-04-16T11:33:49.994Z,1056.74
2023-04-16T11:34:49.922Z,1057.81
2023-04-16T11:35:49.906Z,1064.41
2023-04-16T11:36:49.926Z,1098.72
2023-04-16T11:37:52.874Z,1100.43
2023-04-16T11:38:52.888Z,1101.46
2023-04-16T11:39:49.872Z,1101.46
2023-04-16T11:40:49.842Z,1101.46
2023-04-16T11:41:49.822Z,1101.46
2023-04-16T11:42:49.800Z,1101.46
2023-04-16T11:43:49.818Z,1101.46
2023-04-16T11:44:49.791Z,1101.46
2023-04-16T11:45:49.793Z,1098.97
2023-04-16T11:46:49.828Z,1098.45
2023-04-16T11:47:49.794Z,1093.87
2023-04-16T11:48:49.751Z,1085.21
2023-04-16T11:49:49.731Z,1091.45
2023-04-16T11:50:49.745Z,1088.73
2023-04-16T11:51:49.709Z,1075.94
2023-04-16T11:52:49.717Z,1080.97
2023-04-16T11:53:49.668Z,1077.57
2023-04-16T11:54:49.665Z,1089.94
2023-04-16T11:55:49.710Z,1079.19
2023-04-16T11:56:49.651Z,1065.97
2023-04-16T11:57:52.853Z,1050.95
2023-04-16T11:58:52.617Z,1084.88
2023-04-16T12:00:03.093Z,1088.62
2023-04-16T12:00:50.668Z,1069.65
2023-04-16T12:01:49.769Z,1053.62
2023-04-16T12:02:49.803Z,1039.96
2023-04-16T12:03:49.950Z,1095.84
2023-04-16T12:04:49.653Z,1101.46
2023-04-16T12:05:49.517Z,1097.12
2023-04-16T12:06:49.509Z,1095.44